Time;durP1;ratioP1;P1;durP2;ratioP2;P2;SDS_P1;SDS_P2;PMS_P1;PMS_P2;Temp;Humidity;BMP_temperature;BMP_pressure;BME280_temperature;BME280_humidity;BME280_pressure;Samples;Min_cycle;Max_cycle;Signal;HPM_P1;HPM_P2
2022/03/14 00:00:47;;;;;;;2.78;1.77;;;0.60;99.90;;;;;;5012258;28;20474;-73
2022/03/14 00:03:14;;;;;;;2.00;1.80;;;0.60;99.90;;;;;;5012352;28;20034;-73
2022/03/14 00:05:40;;;;;;;2.80;1.65;;;0.60;99.90;;;;;;5012234;28;20521;-73
2022/03/14 00:08:06;;;;;;;2.00;1.83;;;0.60;99.90;;;;;;5012194;28;20029;-73
2022/03/14 00:10:34;;;;;;;3.53;1.98;;;0.50;99.80;;;;;;5012219;28;20567;-73
2022/03/14 00:13:00;;;;;;;2.80;1.75;;;0.50;99.90;;;;;;5011759;28;20389;-73
2022/03/14 00:15:32;;;;;;;3.97;2.33;;;0.50;99.90;;;;;;5011888;28;20022;-73
2022/03/14 00:17:59;;;;;;;2.50;1.98;;;0.40;99.90;;;;;;5012067;28;20493;-73
2022/03/14 00:20:25;;;;;;;3.67;1.77;;;0.40;99.90;;;;;;5012159;28;20045;-73
2022/03/14 00:22:51;;;;;;;1.90;1.67;;;0.40;99.90;;;;;;5012186;28;20022;-73
2022/03/14 00:25:16;;;;;;;4.15;1.63;;;0.40;99.90;;;;;;5012096;28;20478;-73
2022/03/14 00:27:42;;;;;;;2.22;1.98;;;0.30;99.90;;;;;;5012020;28;20072;-73
2022/03/14 00:30:10;;;;;;;2.30;2.03;;;0.30;99.90;;;;;;5012255;28;20104;-73
2022/03/14 00:32:36;;;;;;;2.40;1.70;;;0.30;99.90;;;;;;5012057;28;20033;-73
2022/03/14 00:35:04;;;;;;;2.45;1.58;;;0.20;99.90;;;;;;5011846;28;20026;-73
2022/03/14 00:37:30;;;;;;;2.15;1.67;;;0.20;99.90;;;;;;5011855;28;20026;-73
2022/03/14 00:39:56;;;;;;;2.42;2.10;;;0.20;99.90;;;;;;5012222;28;20060;-72
2022/03/14 00:42:22;;;;;;;2.33;1.58;;;0.20;99.90;;;;;;5011835;28;20045;-73
2022/03/14 00:44:52;;;;;;;3.45;1.63;;;0.10;99.90;;;;;;5011899;28;20112;-72
2022/03/14 00:47:18;;;;;;;3.33;1.58;;;0.10;99.90;;;;;;5011828;28;20014;-72
2022/03/14 00:49:46;;;;;;;2.10;1.90;;;0.10;99.90;;;;;;5011678;28;20030;-72
2022/03/14 00:52:12;;;;;;;2.72;1.73;;;0.10;99.90;;;;;;5011703;28;20037;-72
2022/03/14 00:54:38;;;;;;;2.80;2.22;;;0.10;99.90;;;;;;5012032;28;20108;-74
2022/03/14 00:57:05;;;;;;;2.33;1.80;;;0.00;99.90;;;;;;5011648;28;20030;-73
2022/03/14 00:59:31;;;;;;;2.22;1.90;;;0.00;99.90;;;;;;5011785;28;20068;-73
2022/03/14 01:01:57;;;;;;;3.63;2.00;;;0.00;99.90;;;;;;5011871;28;20377;-73
2022/03/14 01:04:22;;;;;;;3.03;1.95;;;0.00;99.90;;;;;;5011990;28;20026;-74
2022/03/14 01:06:48;;;;;;;2.25;1.60;;;0.00;99.90;;;;;;5011522;28;20018;-74
2022/03/14 01:09:14;;;;;;;3.30;2.95;;;0.00;99.90;;;;;;5011639;28;20026;-74
2022/03/14 01:11:44;;;;;;;5.45;2.83;;;-0.10;99.90;;;;;;5011873;28;20490;-74
2022/03/14 01:14:11;;;;;;;6.40;2.70;;;-0.30;99.90;;;;;;5010302;28;20022;-74
2022/03/14 01:16:37;;;;;;;7.50;3.13;;;-0.50;99.90;;;;;;5011651;28;20292;-74
2022/03/14 01:19:05;;;;;;;9.18;2.95;;;-0.70;99.90;;;;;;5011783;28;20040;-77
2022/03/14 01:21:31;;;;;;;4.03;2.83;;;-0.70;99.90;;;;;;5011755;28;20030;-76
2022/03/14 01:23:58;;;;;;;9.25;2.45;;;-0.60;99.90;;;;;;5011813;28;20104;-76
2022/03/14 01:26:23;;;;;;;4.22;2.60;;;-0.60;99.90;;;;;;5013264;28;20037;-77
2022/03/14 01:28:49;;;;;;;5.15;2.70;;;-0.60;99.90;;;;;;5002945;28;20018;-74
2022/03/14 01:31:15;;;;;;;3.53;2.72;;;-0.50;99.90;;;;;;4995058;28;20482;-76
2022/03/14 01:33:41;;;;;;;3.75;2.92;;;-0.60;99.90;;;;;;4995567;28;20035;-77
2022/03/14 01:36:07;;;;;;;5.32;2.63;;;-0.60;99.90;;;;;;4995149;28;20057;-77
2022/03/14 01:38:33;;;;;;;4.22;3.03;;;-0.60;99.90;;;;;;4995184;28;20053;-76
2022/03/14 01:40:59;;;;;;;3.97;2.80;;;-0.70;99.90;;;;;;4995146;28;20109;-73
2022/03/14 01:43:26;;;;;;;4.45;3.05;;;-0.70;99.90;;;;;;4995502;28;20038;-74
2022/03/14 01:45:56;;;;;;;4.65;2.67;;;-0.80;99.90;;;;;;4994946;28;20451;-74
2022/03/14 01:48:23;;;;;;;4.25;2.55;;;-0.90;99.90;;;;;;4995576;28;20041;-76
2022/03/14 01:50:49;;;;;;;3.28;2.58;;;-0.90;99.90;;;;;;4994825;28;20045;-74
2022/03/14 01:53:16;;;;;;;3.80;2.35;;;-0.90;99.90;;;;;;4995201;28;20469;-73
2022/03/14 01:55:42;;;;;;;3.88;3.00;;;-0.90;99.90;;;;;;4994936;28;20030;-74
2022/03/14 01:58:09;;;;;;;6.28;2.90;;;-1.00;99.90;;;;;;4994630;28;20545;-75
2022/03/14 02:00:35;;;;;;;4.97;2.80;;;-1.00;99.90;;;;;;4994898;28;20057;-75
2022/03/14 02:03:02;;;;;;;4.43;2.58;;;-1.00;99.90;;;;;;4993348;28;20049;-75
2022/03/14 02:05:28;;;;;;;5.63;2.85;;;-1.00;99.90;;;;;;4994744;28;20028;-75
2022/03/14 02:07:57;;;;;;;8.38;2.72;;;-1.00;99.90;;;;;;4994620;28;20387;-75
2022/03/14 02:10:22;;;;;;;4.18;2.65;;;-1.00;99.90;;;;;;4994843;28;20478;-75
2022/03/14 02:12:48;;;;;;;4.60;2.72;;;-1.00;99.90;;;;;;4994524;28;20065;-75
2022/03/14 02:15:14;;;;;;;2.97;2.60;;;-1.00;99.90;;;;;;4994491;28;20034;-74
2022/03/14 02:17:40;;;;;;;7.57;3.20;;;-1.10;99.90;;;;;;4994513;28;20038;-73
2022/03/14 02:20:07;;;;;;;5.78;3.50;;;-1.10;99.90;;;;;;4994728;28;20128;-73
2022/03/14 02:22:33;;;;;;;6.95;5.15;;;-1.10;99.90;;;;;;4994642;28;20035;-74
2022/03/14 02:56:35;;;;;;;10.35;5.07;;;-1.60;99.90;;;;;;4995224;28;20057;-74
2022/03/14 02:59:02;;;;;;;11.32;5.10;;;-1.60;99.90;;;;;;4993737;28;20378;-74
2022/03/14 03:01:28;;;;;;;7.93;4.95;;;-1.70;99.90;;;;;;4993705;28;20030;-74
2022/03/14 03:37:34;;;;;;;8.93;5.57;;;-1.90;99.90;;;;;;5622539;22;20054;-72
2022/03/14 03:40:00;;;;;;;9.85;4.85;;;-2.00;99.90;;;;;;4993108;28;20042;-72
2022/03/14 03:42:25;;;;;;;7.50;5.05;;;-2.20;99.90;;;;;;4992675;28;20049;-74
2022/03/14 03:44:52;;;;;;;9.93;5.07;;;-2.20;99.90;;;;;;4993215;28;20069;-74
2022/03/14 03:47:17;;;;;;;11.13;5.63;;;-2.20;99.90;;;;;;4992857;28;20027;-72
2022/03/14 03:49:43;;;;;;;10.10;5.22;;;-2.10;99.90;;;;;;5007271;28;20031;-72
2022/03/14 03:52:10;;;;;;;8.23;5.00;;;-2.10;99.90;;;;;;4992735;28;20065;-72
2022/03/14 03:54:36;;;;;;;9.00;5.10;;;-2.00;99.90;;;;;;4992950;28;20065;-72
2022/03/14 03:57:02;;;;;;;7.63;4.60;;;-2.00;99.90;;;;;;4992890;28;20093;-72
2022/03/14 03:59:28;;;;;;;11.57;4.80;;;-2.00;99.90;;;;;;4992704;28;20437;-71
2022/03/14 04:01:55;;;;;;;7.60;5.45;;;-2.00;99.90;;;;;;4992816;28;20454;-73
2022/03/14 04:04:21;;;;;;;13.32;5.28;;;-2.00;99.90;;;;;;4992598;28;20105;-72
2022/03/14 04:06:56;;;;;;;6.63;4.80;;;-2.10;99.90;;;;;;4992986;28;20046;-72
2022/03/14 04:09:21;;;;;;;9.38;6.38;;;-2.20;99.90;;;;;;4992719;28;20030;-73
2022/03/14 04:11:47;;;;;;;7.65;5.35;;;-2.20;99.90;;;;;;4992605;28;20666;-72
2022/03/14 04:14:13;;;;;;;11.52;5.13;;;-2.20;99.90;;;;;;4992448;28;20031;-72
2022/03/14 04:16:41;;;;;;;7.35;4.53;;;-2.10;99.90;;;;;;4992668;28;20370;-73
2022/03/14 04:19:07;;;;;;;9.40;5.15;;;-2.10;99.90;;;;;;4992851;28;20090;-73
2022/03/14 04:21:35;;;;;;;8.40;5.55;;;-2.10;99.90;;;;;;4992746;28;20030;-73
2022/03/14 04:24:06;;;;;;;8.23;5.45;;;-2.10;99.90;;;;;;4992592;28;20033;-73
2022/03/14 04:26:32;;;;;;;8.85;5.00;;;-2.10;99.90;;;;;;4992589;28;20359;-72
2022/03/14 04:28:58;;;;;;;7.70;4.90;;;-2.10;99.90;;;;;;4992408;28;20473;-73
2022/03/14 04:31:24;;;;;;;8.20;5.10;;;-2.10;99.90;;;;;;4992307;28;20038;-73
2022/03/14 04:33:49;;;;;;;8.20;5.05;;;-2.00;99.90;;;;;;4992516;28;20026;-73
2022/03/14 04:36:15;;;;;;;13.20;6.55;;;-2.00;99.90;;;;;;4992603;28;20077;-73
2022/03/14 04:38:41;;;;;;;11.05;6.25;;;-2.00;99.90;;;;;;4992037;28;20046;-73
2022/03/14 04:41:08;;;;;;;11.52;6.25;;;-2.00;99.90;;;;;;4992191;28;20022;-73
2022/03/14 04:43:34;;;;;;;15.27;6.10;;;-2.00;99.90;;;;;;4992668;28;20031;-72
2022/03/14 04:46:00;;;;;;;10.50;5.80;;;-2.00;99.90;;;;;;4992244;28;20034;-72
2022/03/14 04:48:25;;;;;;;9.20;6.35;;;-2.00;99.90;;;;;;4992141;28;20019;-72
2022/03/14 04:50:51;;;;;;;8.98;6.13;;;-2.00;99.90;;;;;;4992163;28;20035;-72
2022/03/14 04:53:17;;;;;;;12.07;6.22;;;-2.00;99.90;;;;;;4992279;28;20030;-73
2022/03/14 04:55:44;;;;;;;15.75;5.55;;;-2.00;99.90;;;;;;4992273;28;20029;-74
2022/03/14 04:58:14;;;;;;;11.88;6.45;;;-2.00;99.90;;;;;;4991846;28;20043;-72
2022/03/14 05:00:41;;;;;;;13.77;6.07;;;-2.10;99.90;;;;;;4994344;28;20042;-72
2022/03/14 05:03:08;;;;;;;9.98;6.00;;;-2.20;99.90;;;;;;4995899;28;20101;-74
2022/03/14 05:05:34;;;;;;;11.68;6.90;;;-2.20;99.90;;;;;;4995878;28;20038;-74
2022/03/14 05:08:01;;;;;;;10.30;6.38;;;-2.20;99.90;;;;;;4995655;28;20026;-74
2022/03/14 05:10:27;;;;;;;12.05;6.25;;;-2.20;99.90;;;;;;4995872;28;20042;-74
2022/03/14 05:12:53;;;;;;;15.10;6.57;;;-2.20;99.90;;;;;;4995776;28;20117;-74
2022/03/14 05:15:19;;;;;;;14.73;6.00;;;-2.10;99.90;;;;;;4995857;28;20022;-72
2022/03/14 05:17:45;;;;;;;17.50;6.95;;;-2.10;99.90;;;;;;4995758;28;20620;-72
2022/03/14 05:20:12;;;;;;;9.95;7.03;;;-2.10;99.90;;;;;;4995880;28;20117;-72
2022/03/14 05:22:45;;;;;;;11.90;6.35;;;-2.00;99.90;;;;;;4995569;28;20077;-72
2022/03/14 05:25:11;;;;;;;16.65;6.05;;;-2.10;99.90;;;;;;4995632;28;20105;-73
2022/03/14 05:27:39;;;;;;;11.35;6.35;;;-2.10;99.90;;;;;;4995338;28;20022;-73
2022/03/14 05:30:08;;;;;;;15.27;6.38;;;-2.10;99.90;;;;;;4995511;28;20022;-73
2022/03/14 05:32:35;;;;;;;14.80;7.03;;;-2.00;99.90;;;;;;4995069;28;20543;-72
2022/03/14 05:35:01;;;;;;;9.20;5.78;;;-2.00;99.90;;;;;;4995296;28;20033;-71
2022/03/14 05:37:27;;;;;;;14.63;6.60;;;-2.10;99.90;;;;;;4994737;28;20081;-77
2022/03/14 05:39:53;;;;;;;13.65;5.40;;;-2.10;99.90;;;;;;4993723;28;20109;-73
2022/03/14 05:42:19;;;;;;;13.35;5.80;;;-2.10;99.90;;;;;;4995176;28;20022;-77
2022/03/14 05:44:45;;;;;;;19.70;6.32;;;-1.90;99.90;;;;;;4995189;28;20089;-69
2022/03/14 05:47:12;;;;;;;18.73;6.10;;;-1.60;99.90;;;;;;4994682;28;20097;-73
2022/03/14 05:49:37;;;;;;;10.38;5.50;;;-1.60;99.90;;;;;;4994859;28;20381;-74
2022/03/14 05:52:05;;;;;;;19.92;6.13;;;-1.80;99.90;;;;;;5008372;28;20034;-71
2022/03/14 05:54:31;;;;;;;13.13;6.15;;;-1.80;99.90;;;;;;5012916;28;20439;-71
2022/03/14 05:56:57;;;;;;;114.93;30.05;;;-1.80;99.90;;;;;;5013797;28;20033;-70
2022/03/14 05:59:23;;;;;;;55.58;17.52;;;-1.80;99.90;;;;;;5013222;28;20149;-73
2022/03/14 06:01:48;;;;;;;42.33;13.30;;;-1.80;99.90;;;;;;5011463;28;20037;-71
2022/03/14 06:04:15;;;;;;;30.55;11.45;;;-1.80;99.90;;;;;;5012339;28;20496;-71
2022/03/14 06:06:40;;;;;;;29.98;9.07;;;-1.80;99.90;;;;;;5013875;28;20191;-72
2022/03/14 06:09:06;;;;;;;12.93;6.72;;;-1.80;99.90;;;;;;5014286;28;20471;-71
2022/03/14 06:11:32;;;;;;;18.88;6.53;;;-1.80;99.90;;;;;;5011693;28;20165;-72
2022/03/14 06:13:58;;;;;;;19.50;7.75;;;-1.80;99.90;;;;;;5010837;28;20026;-70
2022/03/14 06:16:25;;;;;;;19.10;10.02;;;-1.90;99.90;;;;;;5013783;28;20061;-71
2022/03/14 06:18:51;;;;;;;39.88;16.05;;;-2.00;99.90;;;;;;5014298;28;20041;-70
2022/03/14 06:21:17;;;;;;;19.70;10.52;;;-2.00;99.90;;;;;;5014088;28;20503;-70
2022/03/14 06:23:43;;;;;;;18.27;8.07;;;-1.90;99.90;;;;;;5013859;28;20017;-70
2022/03/14 06:26:09;;;;;;;14.70;7.40;;;-1.70;99.90;;;;;;5013878;28;20041;-70
2022/03/14 06:28:34;;;;;;;11.57;6.25;;;-1.60;99.90;;;;;;5013283;28;20493;-71
2022/03/14 06:31:00;;;;;;;14.50;7.30;;;-1.60;99.90;;;;;;5013645;28;20097;-70
2022/03/14 06:33:26;;;;;;;12.98;7.57;;;-1.60;99.90;;;;;;5013557;28;20140;-70
2022/03/14 06:35:52;;;;;;;18.08;6.70;;;-1.60;99.90;;;;;;5013585;28;20043;-71
2022/03/14 06:38:17;;;;;;;10.38;6.65;;;-1.70;99.90;;;;;;5013095;28;20104;-70
2022/03/14 06:40:43;;;;;;;14.45;6.63;;;-1.70;99.90;;;;;;5013895;28;20018;-70
2022/03/14 06:43:13;;;;;;;11.48;6.80;;;-1.70;99.90;;;;;;5013575;28;20433;-70
2022/03/14 06:45:39;;;;;;;20.80;6.63;;;-1.70;99.90;;;;;;5013945;28;20022;-70
2022/03/14 06:48:06;;;;;;;24.45;7.47;;;-1.70;99.90;;;;;;5013437;28;20033;-70
2022/03/14 06:50:34;;;;;;;13.05;6.32;;;-1.60;99.90;;;;;;5013640;28;20033;-70
2022/03/14 06:53:00;;;;;;;11.70;6.47;;;-1.70;99.90;;;;;;5012094;28;20400;-69
2022/03/14 06:55:26;;;;;;;20.73;6.70;;;-1.70;99.90;;;;;;5013249;28;20109;-71
2022/03/14 06:57:52;;;;;;;15.70;6.72;;;-1.70;99.90;;;;;;5013500;28;20113;-76
2022/03/14 07:00:18;;;;;;;18.55;6.13;;;-1.70;99.90;;;;;;5013257;28;20100;-71
2022/03/14 07:02:44;;;;;;;13.00;6.57;;;-1.70;99.90;;;;;;5013253;28;20465;-72
2022/03/14 07:05:20;;;;;;;20.10;5.72;;;-1.70;99.90;;;;;;5013026;28;20076;-72
2022/03/14 07:07:46;;;;;;;11.35;5.97;;;-1.30;99.90;;;;;;5011906;28;20034;-76
2022/03/14 07:10:13;;;;;;;15.30;6.05;;;-0.90;99.90;;;;;;5013107;28;20029;-70
2022/03/14 07:12:46;;;;;;;14.07;6.15;;;-1.00;99.90;;;;;;5013035;28;20057;-69
2022/03/14 07:15:16;;;;;;;12.35;5.90;;;-1.20;99.90;;;;;;5011718;28;20113;-71
2022/03/14 07:17:44;;;;;;;15.73;6.43;;;-1.40;99.90;;;;;;5013221;28;20116;-72
2022/03/14 07:20:11;;;;;;;15.85;5.97;;;-1.40;99.90;;;;;;5011586;28;20060;-71
2022/03/14 07:22:50;;;;;;;11.23;6.07;;;-1.50;99.90;;;;;;5013090;28;20113;-71
2022/03/14 07:25:25;;;;;;;9.35;6.25;;;-1.50;99.90;;;;;;5012680;28;20030;-74
2022/03/14 07:27:55;;;;;;;11.77;5.80;;;-1.40;99.90;;;;;;5012887;28;20037;-74
2022/03/14 07:30:22;;;;;;;11.77;6.05;;;-1.40;99.90;;;;;;5012778;28;20116;-69
2022/03/14 07:32:47;;;;;;;11.82;6.28;;;-1.40;99.90;;;;;;5012770;28;20488;-72
2022/03/14 07:35:14;;;;;;;14.45;6.32;;;-1.40;99.90;;;;;;5012696;28;20054;-73
2022/03/14 07:37:40;;;;;;;13.48;6.38;;;-1.40;99.90;;;;;;5012242;28;20101;-72
2022/03/14 07:40:08;;;;;;;10.43;6.00;;;-1.40;99.90;;;;;;5012426;28;20018;-72
2022/03/14 07:42:45;;;;;;;11.68;5.25;;;-1.40;99.90;;;;;;5012219;28;20025;-68
2022/03/14 07:45:14;;;;;;;27.42;6.15;;;-1.20;99.90;;;;;;5012113;28;20026;-72
2022/03/14 07:47:40;;;;;;;14.93;5.45;;;-1.10;99.90;;;;;;5012190;28;20085;-72
2022/03/14 07:50:08;;;;;;;18.58;6.50;;;-1.10;99.90;;;;;;5012171;28;20030;-72
2022/03/14 07:52:35;;;;;;;23.42;5.95;;;-1.10;99.90;;;;;;5012178;28;20440;-72
2022/03/14 07:55:03;;;;;;;11.82;5.07;;;-1.00;99.90;;;;;;5012415;28;20053;-72
2022/03/14 07:57:31;;;;;;;9.20;5.68;;;-0.90;99.90;;;;;;5011975;28;20025;-72
2022/03/14 08:00:01;;;;;;;8.75;5.00;;;-0.80;99.90;;;;;;5011728;28;20033;-68
2022/03/14 08:02:27;;;;;;;16.13;4.88;;;-0.70;99.90;;;;;;5011649;28;20022;-69
2022/03/14 08:04:53;;;;;;;16.77;5.30;;;-0.60;99.90;;;;;;5012016;28;20025;-68
2022/03/14 08:07:20;;;;;;;11.95;4.82;;;-0.60;99.90;;;;;;5012463;28;20028;-69
2022/03/14 08:09:48;;;;;;;13.95;4.47;;;-0.60;99.90;;;;;;5011983;28;20030;-68
2022/03/14 08:12:15;;;;;;;19.00;4.30;;;-0.60;99.90;;;;;;5011392;28;20034;-69
2022/03/14 08:14:40;;;;;;;10.18;4.05;;;-0.60;99.90;;;;;;5008118;28;20048;-69
2022/03/14 08:17:06;;;;;;;5.60;3.25;;;-0.50;99.90;;;;;;5005689;28;20120;-68
2022/03/14 08:19:32;;;;;;;7.97;3.50;;;-0.50;99.90;;;;;;5010979;28;20090;-69
2022/03/14 08:21:58;;;;;;;10.25;3.63;;;-0.50;99.90;;;;;;5008941;28;20036;-65
2022/03/14 08:24:24;;;;;;;8.27;4.10;;;-0.50;99.90;;;;;;5011006;28;20018;-69
2022/03/14 08:26:50;;;;;;;7.90;4.38;;;-0.40;99.90;;;;;;5010915;28;20164;-70
2022/03/14 08:29:17;;;;;;;7.53;4.45;;;-0.40;99.90;;;;;;5011294;28;20069;-70
2022/03/14 08:31:43;;;;;;;7.38;3.88;;;-0.30;99.90;;;;;;5011219;28;20026;-69
2022/03/14 08:34:11;;;;;;;14.38;4.65;;;-0.20;99.90;;;;;;5011189;28;20101;-70
2022/03/14 08:36:40;;;;;;;12.55;4.60;;;-0.10;99.90;;;;;;5014967;28;20037;-69
2022/03/14 08:39:07;;;;;;;12.25;5.13;;;-0.10;99.90;;;;;;5015955;28;20042;-69
2022/03/14 08:41:36;;;;;;;12.77;4.70;;;0.00;99.90;;;;;;5015442;28;20092;-70
2022/03/14 08:44:03;;;;;;;15.77;4.38;;;1.50;99.90;;;;;;5015200;28;20454;-68
2022/03/14 08:46:29;;;;;;;5.70;2.45;;;1.60;99.90;;;;;;5015269;28;20040;-70
2022/03/14 08:48:54;;;;;;;10.00;4.57;;;3.40;99.90;;;;;;5015435;28;20026;-70
2022/03/14 08:51:21;;;;;;;9.20;3.67;;;4.10;99.90;;;;;;5015501;28;20117;-70
2022/03/14 08:53:47;;;;;;;12.65;4.15;;;3.40;99.90;;;;;;5015803;28;20026;-70
2022/03/14 08:56:12;;;;;;;12.57;3.60;;;2.80;99.90;;;;;;5015409;28;20437;-70
2022/03/14 08:58:38;;;;;;;10.27;3.47;;;2.40;99.90;;;;;;5015537;28;20030;-70
2022/03/14 09:01:05;;;;;;;8.82;4.10;;;2.10;99.90;;;;;;5015368;28;20033;-70
2022/03/14 09:03:31;;;;;;;6.43;3.75;;;2.00;99.90;;;;;;5015213;28;20474;-70
2022/03/14 09:05:57;;;;;;;22.40;4.80;;;1.90;99.90;;;;;;5015508;28;20036;-70
2022/03/14 09:08:29;;;;;;;21.52;4.60;;;1.90;99.90;;;;;;5014972;28;20057;-70
2022/03/14 09:10:55;;;;;;;11.40;4.45;;;1.90;99.90;;;;;;5015329;28;20021;-70
2022/03/14 09:13:23;;;;;;;8.90;4.35;;;1.80;99.90;;;;;;5015272;28;20392;-70
2022/03/14 09:15:50;;;;;;;10.43;3.83;;;1.90;99.90;;;;;;5015072;28;20026;-70
2022/03/14 09:18:16;;;;;;;6.50;3.95;;;1.90;99.90;;;;;;5014999;28;20034;-70
2022/03/14 09:20:42;;;;;;;8.43;4.43;;;1.80;99.90;;;;;;5015315;28;20161;-70
2022/03/14 09:23:08;;;;;;;11.27;4.10;;;1.80;99.90;;;;;;5015138;28;20025;-70
2022/03/14 09:25:35;;;;;;;12.65;3.92;;;1.80;99.90;;;;;;5015180;28;20026;-70
2022/03/14 09:28:00;;;;;;;6.20;4.18;;;1.80;99.90;;;;;;5015022;28;20022;-70
2022/03/14 09:30:26;;;;;;;11.48;3.78;;;1.80;99.90;;;;;;5014783;28;20022;-70
2022/03/14 09:32:54;;;;;;;8.45;4.30;;;1.80;99.90;;;;;;5015117;28;20028;-70
2022/03/14 09:35:22;;;;;;;6.32;3.92;;;1.80;99.90;;;;;;5015337;28;20100;-70
2022/03/14 09:37:49;;;;;;;12.52;3.88;;;1.90;99.90;;;;;;5014947;28;20405;-70
2022/03/14 09:40:22;;;;;;;11.48;4.22;;;1.90;99.90;;;;;;5014830;28;20022;-70
2022/03/14 09:42:55;;;;;;;10.00;3.80;;;1.90;99.90;;;;;;5014865;28;20034;-70
2022/03/14 09:45:21;;;;;;;11.27;3.38;;;1.90;99.90;;;;;;5015060;28;20034;-70
2022/03/14 09:47:58;;;;;;;7.45;3.70;;;1.90;99.90;;;;;;5013449;28;20026;-70
2022/03/14 09:50:31;;;;;;;18.15;3.33;;;2.00;99.90;;;;;;5014311;28;20029;-70
2022/03/14 09:52:58;;;;;;;8.15;3.45;;;2.00;99.90;;;;;;5014601;28;20034;-70
2022/03/14 09:55:25;;;;;;;7.43;3.53;;;2.00;99.90;;;;;;5014510;28;20157;-70
2022/03/14 09:57:51;;;;;;;16.00;4.05;;;2.10;99.90;;;;;;5014475;28;20037;-70
2022/03/14 10:00:18;;;;;;;7.00;3.80;;;2.10;99.90;;;;;;5013111;28;20485;-71
2022/03/14 10:02:44;;;;;;;20.75;4.90;;;2.10;99.90;;;;;;5014611;28;20030;-70
2022/03/14 10:05:15;;;;;;;12.98;4.70;;;2.20;99.90;;;;;;5014060;28;20105;-70
2022/03/14 10:07:45;;;;;;;10.18;4.85;;;2.80;99.90;;;;;;5014209;28;20030;-72
2022/03/14 10:10:12;;;;;;;14.13;4.95;;;2.90;99.90;;;;;;5012826;28;20521;-72
2022/03/14 10:12:40;;;;;;;13.85;5.50;;;2.70;99.90;;;;;;5014300;28;20068;-72
2022/03/14 10:15:07;;;;;;;11.77;5.45;;;2.60;99.90;;;;;;5013800;28;20018;-72
2022/03/14 10:17:34;;;;;;;9.30;3.78;;;2.60;99.90;;;;;;5013992;28;20092;-68
2022/03/14 10:20:01;;;;;;;18.90;4.60;;;2.90;99.90;;;;;;5014524;28;20026;-72
2022/03/14 10:22:57;;;;;;;9.57;4.93;;;3.60;99.90;;;;;;5013769;28;20022;-72
2022/03/14 10:25:23;;;;;;;16.85;4.95;;;3.30;99.90;;;;;;5012676;28;20030;-72
2022/03/14 10:27:57;;;;;;;15.90;5.93;;;3.20;99.90;;;;;;5014077;28;20025;-73
2022/03/14 10:30:27;;;;;;;17.45;4.90;;;3.00;99.90;;;;;;5013288;28;20038;-72
2022/03/14 10:33:13;;;;;;;18.95;5.25;;;2.90;99.90;;;;;;5009196;28;20515;-73
2022/03/14 10:35:41;;;;;;;16.80;4.75;;;2.80;99.90;;;;;;4993357;28;20036;-72
2022/03/14 10:38:11;;;;;;;10.40;5.18;;;2.80;99.90;;;;;;4995917;28;20088;-72
2022/03/14 10:40:42;;;;;;;14.40;4.90;;;2.90;99.90;;;;;;4997699;28;20030;-72
2022/03/14 10:43:20;;;;;;;15.10;5.00;;;2.90;99.90;;;;;;4993284;28;20027;-72
2022/03/14 10:45:46;;;;;;;11.90;5.03;;;2.90;99.90;;;;;;4993028;28;20485;-73
2022/03/14 10:48:12;;;;;;;9.90;4.78;;;2.90;99.90;;;;;;4996526;28;20030;-73
2022/03/14 10:50:40;;;;;;;7.40;4.15;;;3.00;99.90;;;;;;4993637;28;20053;-73
2022/03/14 10:53:20;;;;;;;11.15;3.83;;;3.00;99.90;;;;;;4993841;28;20027;-73
2022/03/14 10:55:47;;;;;;;10.05;3.88;;;3.00;99.90;;;;;;5002244;28;20022;-72
2022/03/14 10:58:16;;;;;;;11.77;4.15;;;3.00;99.90;;;;;;5012616;28;20366;-71
2022/03/14 11:00:56;;;;;;;9.20;3.47;;;3.00;99.90;;;;;;5012934;28;20568;-71
2022/03/14 11:03:31;;;;;;;7.13;3.53;;;3.10;99.90;;;;;;5013392;28;20034;-71
2022/03/14 11:05:58;;;;;;;5.88;3.72;;;3.10;99.90;;;;;;5012676;28;20073;-74
2022/03/14 11:08:48;;;;;;;12.65;3.67;;;3.10;99.90;;;;;;5011876;28;20106;-75
2022/03/14 11:11:25;;;;;;;8.27;4.13;;;3.20;99.90;;;;;;4996030;28;20490;-74
2022/03/14 11:13:53;;;;;;;14.82;3.25;;;3.20;99.90;;;;;;4993731;28;20720;-75
2022/03/14 11:16:24;;;;;;;8.70;4.18;;;4.00;99.90;;;;;;4993250;28;20022;-75
2022/03/14 11:18:51;;;;;;;8.35;3.70;;;4.00;99.90;;;;;;4993162;28;20030;-75
2022/03/14 11:21:24;;;;;;;17.73;4.50;;;3.90;99.90;;;;;;4993347;28;20033;-75
2022/03/14 11:23:51;;;;;;;9.68;4.05;;;3.80;99.90;;;;;;4992907;28;20038;-75
2022/03/14 11:26:22;;;;;;;16.23;4.53;;;3.70;99.90;;;;;;4993428;28;20036;-76
2022/03/14 11:28:49;;;;;;;16.08;5.13;;;3.70;99.90;;;;;;4993000;28;20389;-75
2022/03/14 11:31:19;;;;;;;9.18;4.07;;;3.70;99.90;;;;;;4993102;28;20375;-75
2022/03/14 11:33:46;;;;;;;10.50;3.80;;;3.70;99.60;;;;;;4993016;28;20125;-75
2022/03/14 11:36:12;;;;;;;10.65;3.80;;;3.60;98.70;;;;;;5006353;28;20038;-75
2022/03/14 11:38:38;;;;;;;5.72;3.72;;;3.60;98.40;;;;;;5012395;28;20494;-75
2022/03/14 11:41:04;;;;;;;15.07;4.57;;;3.60;98.90;;;;;;5012851;28;20036;-75
2022/03/14 11:43:30;;;;;;;13.30;4.70;;;3.70;99.10;;;;;;5012406;28;20029;-76
2022/03/14 11:46:00;;;;;;;14.98;5.25;;;3.70;98.60;;;;;;5012709;28;20026;-76
2022/03/14 11:48:31;;;;;;;15.93;4.65;;;3.80;99.40;;;;;;5012584;28;20115;-76
2022/03/14 11:51:06;;;;;;;14.30;4.78;;;3.80;99.60;;;;;;5012400;28;20116;-77
2022/03/14 11:53:34;;;;;;;11.90;6.68;;;3.80;99.10;;;;;;5009853;28;20042;-75
2022/03/14 11:56:08;;;;;;;11.18;4.43;;;3.80;99.20;;;;;;5009503;28;20022;-74
2022/03/14 11:58:41;;;;;;;11.70;4.75;;;3.80;99.70;;;;;;5011773;28;20029;-75
2022/03/14 12:01:21;;;;;;;18.83;5.15;;;3.90;99.30;;;;;;5009390;28;20025;-75
2022/03/14 12:03:58;;;;;;;6.85;4.43;;;3.80;99.40;;;;;;5011898;28;20103;-71
2022/03/14 12:06:45;;;;;;;7.97;4.63;;;3.80;99.90;;;;;;5012499;28;20026;-72
2022/03/14 12:09:34;;;;;;;6.07;3.80;;;3.80;99.70;;;;;;5011753;28;20045;-72
2022/03/14 12:12:20;;;;;;;9.45;3.83;;;3.90;99.90;;;;;;5002857;28;20053;-72
2022/03/14 12:14:54;;;;;;;7.10;3.58;;;3.90;99.90;;;;;;5001576;28;20033;-71
2022/03/14 12:17:23;;;;;;;7.00;3.10;;;3.90;99.90;;;;;;5012184;28;20026;-72
2022/03/14 12:19:54;;;;;;;8.40;3.60;;;3.90;99.90;;;;;;5011886;28;20037;-73
2022/03/14 12:22:39;;;;;;;6.53;3.72;;;3.90;99.90;;;;;;5012017;28;20022;-73
2022/03/14 12:25:07;;;;;;;7.32;3.50;;;3.80;99.90;;;;;;5012196;28;20021;-73
2022/03/14 12:27:44;;;;;;;7.75;3.70;;;3.80;99.90;;;;;;5011883;28;20120;-72
2022/03/14 12:30:16;;;;;;;5.05;4.03;;;3.80;99.90;;;;;;5012091;28;20030;-72
2022/03/14 12:32:44;;;;;;;10.35;3.72;;;3.80;99.90;;;;;;5012067;28;20083;-73
2022/03/14 12:35:16;;;;;;;6.63;4.13;;;3.70;99.90;;;;;;5012097;28;20065;-72
2022/03/14 12:37:42;;;;;;;7.25;3.53;;;3.70;99.90;;;;;;5000829;28;20077;-72
2022/03/14 12:40:32;;;;;;;5.90;3.90;;;3.60;99.90;;;;;;4992357;28;20459;-70
2022/03/14 12:43:07;;;;;;;4.65;3.50;;;3.60;99.90;;;;;;4981719;28;20478;-71
2022/03/14 12:45:44;;;;;;;5.85;3.80;;;3.60;99.90;;;;;;4991861;28;20038;-70
2022/03/14 12:48:19;;;;;;;9.75;3.88;;;3.60;99.90;;;;;;4992311;28;20031;-71
2022/03/14 12:50:45;;;;;;;5.25;4.07;;;3.60;99.90;;;;;;4991834;28;20421;-75
2022/03/14 12:53:17;;;;;;;6.30;4.03;;;3.50;99.90;;;;;;4992222;28;20038;-73
2022/03/14 12:55:44;;;;;;;9.95;4.10;;;3.50;99.90;;;;;;4992091;28;20023;-75
2022/03/14 12:58:16;;;;;;;7.00;4.13;;;4.00;99.90;;;;;;4992082;28;20034;-75
2022/03/14 13:00:42;;;;;;;7.30;4.93;;;4.00;99.90;;;;;;4991687;28;20034;-75
2022/03/14 13:03:09;;;;;;;9.05;4.60;;;3.80;99.90;;;;;;4992222;28;20033;-75
2022/03/14 13:05:41;;;;;;;6.55;4.53;;;3.60;99.90;;;;;;4992025;28;20058;-75
2022/03/14 13:08:07;;;;;;;7.50;4.15;;;3.60;99.90;;;;;;4991959;28;20565;-75
2022/03/14 13:10:47;;;;;;;8.02;4.20;;;3.50;99.90;;;;;;4992033;28;20117;-75
2022/03/14 13:13:22;;;;;;;8.50;5.43;;;3.40;99.90;;;;;;4992096;28;20117;-75
2022/03/14 13:16:04;;;;;;;6.32;4.35;;;3.40;99.90;;;;;;4991891;28;20051;-75
2022/03/14 13:18:34;;;;;;;7.10;4.32;;;3.40;99.90;;;;;;4992070;28;20022;-75
2022/03/14 13:21:00;;;;;;;7.90;4.15;;;3.40;99.90;;;;;;4991687;28;20038;-75
2022/03/14 13:23:27;;;;;;;6.93;4.18;;;3.30;99.90;;;;;;4995555;28;20030;-74
2022/03/14 13:25:52;;;;;;;5.70;4.13;;;3.30;99.90;;;;;;4995617;28;20027;-75
2022/03/14 13:28:28;;;;;;;3.17;1.70;;;3.30;99.90;;;;;;4995810;28;20181;-73
2022/03/14 13:30:57;;;;;;;9.10;3.28;;;4.60;99.90;;;;;;4995558;28;20041;-75
2022/03/14 13:33:25;;;;;;;4.18;3.30;;;6.50;99.90;;;;;;4995370;28;20030;-75
2022/03/14 13:35:59;;;;;;;6.30;3.85;;;5.60;98.40;;;;;;4996800;28;20022;-75
2022/03/14 13:38:31;;;;;;;4.28;3.53;;;4.60;99.90;;;;;;4995069;28;20053;-76
2022/03/14 13:40:57;;;;;;;3.92;3.25;;;4.20;99.90;;;;;;4995406;28;20064;-75
2022/03/14 13:43:24;;;;;;;4.32;3.10;;;3.90;99.90;;;;;;4995558;28;20518;-75
2022/03/14 13:45:50;;;;;;;3.40;3.10;;;3.60;99.90;;;;;;5002582;28;20054;-75
2022/03/14 13:48:22;;;;;;;5.05;3.38;;;3.40;99.90;;;;;;4994896;28;20058;-75
2022/03/14 13:50:53;;;;;;;4.53;3.50;;;3.30;99.90;;;;;;5011190;28;20120;-75
2022/03/14 13:53:22;;;;;;;4.47;3.72;;;3.20;99.90;;;;;;5012910;28;20066;-74
2022/03/14 13:55:56;;;;;;;4.13;3.30;;;3.10;99.90;;;;;;5012683;28;20378;-75
2022/03/14 13:58:26;;;;;;;4.80;2.92;;;3.00;99.90;;;;;;5014005;28;20026;-74